Airfield :
LOGIN :

Register | Disclaimer

   EN    FR    IT 

 










Legend :    VFR   Marginal VFR   IFR   Intensive IFR   Very Intensive IFR
Visi :
Ceiling :
>= 8 km
>= 3000ft
5 to 8 km
1000 to 3000 ft
1500m to 5 km
500 to 1000 ft
800 to 1500m
200 to 500 ft
< 800m
< 200 ft
Symbols :   Thunderstorms  Fog  Heavy snow  Heavy precipitations  Wind > 20 kt
SIGMETs :     Misc.  Thunderstorms  Icing  Turbulence  Mountain Waves  Volcanic Ashes







- Airport Elevation : 82 ft
- IATA code : QIE
- Download approach charts


LFMI - Istres

CURRENT METAR :
  • 190400Z AUTO 07004KT 9999 OVC038 07/05 Q1023 NOSIG

EXPIRED METARs :
  • 190330Z AUTO VRB03KT 9999 OVC037 06/04 Q1023 NOSIG
  • 190300Z AUTO VRB03KT 9999 OVC039 06/04 Q1023 NOSIG
  • 190230Z AUTO 04004KT 9999 OVC037 05/04 Q1023 NOSIG
  • 190200Z AUTO 03003KT 9999 BKN038 BKN140 05/04 Q1023 NOSIG
  • 190130Z AUTO 04003KT 9999 OVC037 05/04 Q1023 NOSIG

TAF TAF LFMI
Valid from the 19 at 03:00 until the 20 at 03:00 UTC


190200Z 1903/2003 VRB04KT 9999 BKN015
BECMG 1906/1908 SCT020
TEMPO 1915/1920 BKN030
BECMG 1920/1922 4000 BR BKN005
No reported NOTAMs for that airfield.



MET'MAP, your aeronautical weather chart ! - Copyright ORBIFLY December 2007 - Disclaimer

ORBIFLY MET'MAP TEAM :

Programming & Development : Alexandra Zaïnal
Concept & Development : Baudouin d'Aumeries
Co-Development & Prog : Marc-Olivier Méhu
Technical & hardware support : Manuel Goepfert

Contact : metmap@orbifly.com




SOURCES & CREDITS :

   NOAA